Flight Track Log - Related Links

Times and Time Zones

All times are in EDT time to prevent confusion due to time zone crossing. See the N777NC flight status page for this flight to view local times or setup timezone preferences in your user account.

Time Position Orientation Groundspeed Altitude Reporting Facility
EDT Latitude Longitude Course Direction KTS MPH feet Rate Location/Type
Tue 12:51:24 PM 33.6500 -84.4833 284° West 212 244 2,700  Level Atlanta TRACON
Tue 12:52:24 PM 33.6667 -84.5667 284° West 265 305 6,400 3,300 Climbing Atlanta TRACON
Tue 12:53:24 PM 33.6833 -84.6667 281° West 285 328 9,300 2,618 Climbing Atlanta TRACON
Tue 12:55:48 PM 33.6639 -84.9075 265° West 337 388 15,300 2,471 Climbing Atlanta Center
Tue 12:56:48 PM 33.6525 -85.0269 263° West 356 410 17,700 2,300 Climbing Atlanta Center
Tue 12:57:48 PM 33.6472 -85.1467 267° West 365 420 19,900 2,050 Climbing Atlanta Center
Tue 12:58:48 PM 33.6733 -85.2794 283° West 365 420 21,800 1,050 Climbing Atlanta Center
Tue 12:59:48 PM 33.7072 -85.4147 287° West 382 440 22,000 100 Climbing Atlanta Center
Tue 01:00:48 PM 33.7683 -85.5381 301° West 413 475 22,000  Level Atlanta Center
Tue 01:01:48 PM 33.8317 -85.6617 302° West 435 501 22,000  Level Atlanta Center
Tue 01:02:48 PM 33.8819 -85.7953 294° West 445 512 22,000 -150 Level Atlanta Center
Tue 01:03:48 PM 33.9514 -85.8919 311° West 438 504 21,700 -1,500 Descending Atlanta Center
Tue 01:04:48 PM 34.0397 -85.9967 316° Northwest 435 501 19,000 -2,901 Descending Atlanta Center
Tue 01:06:50 PM 34.2278 -86.1819 321° Northwest 404 465 12,900 -2,670 Descending Memphis Center
Tue 01:07:50 PM 34.3175 -86.2481 329° Northwest 399 459 10,900 -1,050 Descending Memphis Center
Tue 01:08:50 PM 34.3986 -86.3047 330° Northwest 374 430 10,800 -400 Descending Memphis Center
Tue 01:09:50 PM 34.4878 -86.3533 336° Northwest 352 405 10,100 -400 Descending Memphis Center
Tue 01:10:50 PM 34.5692 -86.4200 326° Northwest 352 405 10,000 -600 Descending Memphis Center
Tue 01:11:50 PM 34.6400 -86.4772 326° Northwest 332 382 8,900 -1,350 Descending Memphis Center
Tue 01:12:50 PM 34.7003 -86.5378 320° Northwest 299 344 7,300 -1,600 Descending Memphis Center
Tue 01:13:50 PM 34.7581 -86.5908 323° Northwest 279 321 5,700 -1,550 Descending Memphis Center
Tue 01:14:50 PM 34.7978 -86.6572 306° West 256 295 4,200 -1,200 Descending Memphis Center
Tue 01:15:50 PM 34.7853 -86.7261 258° West 205 236 3,300 -900 Descending Memphis Center
Tue 01:16:50 PM 34.7464 -86.7606 216° Southwest 160 184 2,400 -950 Descending Memphis Center
Tue 01:17:50 PM 34.6967 -86.7653 184° South 154 177 1,400 -850 Descending Memphis Center
Tue 01:18:50 PM 34.6569 -86.7669 182° South 148 170 700 -350 Descending Memphis Center
Tue 01:19:50 PM 34.6222 -86.7886 207° Southwest 148 170 700  Level Memphis Center

Login

Don't have an account? Register now (free) for customized features, flight alerts, and more!